sensor_id;sensor_type;location;lat;lon;timestamp;P1;durP1;ratioP1;P2;durP2;ratioP2
14030;SDS011;7090;49.436;8.490;2023-05-27T00:00:55;6.00;;;5.80;;
14030;SDS011;7090;49.436;8.490;2023-05-27T00:03:21;5.70;;;5.50;;
14030;SDS011;7090;49.436;8.490;2023-05-27T00:05:47;6.67;;;6.27;;
14030;SDS011;7090;49.436;8.490;2023-05-27T00:08:12;16.63;;;6.80;;
14030;SDS011;7090;49.436;8.490;2023-05-27T00:10:38;5.80;;;5.60;;
14030;SDS011;7090;49.436;8.490;2023-05-27T00:13:03;5.90;;;5.70;;
14030;SDS011;7090;49.436;8.490;2023-05-27T00:15:29;6.10;;;5.90;;
14030;SDS011;7090;49.436;8.490;2023-05-27T00:17:55;5.90;;;5.70;;
14030;SDS011;7090;49.436;8.490;2023-05-27T00:20:23;6.90;;;6.40;;
14030;SDS011;7090;49.436;8.490;2023-05-27T00:22:49;6.00;;;5.80;;
14030;SDS011;7090;49.436;8.490;2023-05-27T00:25:15;5.90;;;5.70;;
14030;SDS011;7090;49.436;8.490;2023-05-27T00:27:45;6.00;;;5.80;;
14030;SDS011;7090;49.436;8.490;2023-05-27T00:30:11;5.90;;;5.70;;
14030;SDS011;7090;49.436;8.490;2023-05-27T00:32:36;9.70;;;9.30;;
14030;SDS011;7090;49.436;8.490;2023-05-27T00:35:02;6.10;;;5.90;;
14030;SDS011;7090;49.436;8.490;2023-05-27T00:37:28;5.73;;;5.53;;
14030;SDS011;7090;49.436;8.490;2023-05-27T00:39:53;14.27;;;13.57;;
14030;SDS011;7090;49.436;8.490;2023-05-27T00:42:20;6.10;;;5.90;;
14030;SDS011;7090;49.436;8.490;2023-05-27T00:44:45;5.80;;;5.60;;
14030;SDS011;7090;49.436;8.490;2023-05-27T00:47:11;5.60;;;5.40;;
14030;SDS011;7090;49.436;8.490;2023-05-27T00:49:37;6.00;;;5.80;;
14030;SDS011;7090;49.436;8.490;2023-05-27T00:52:03;15.03;;;6.73;;
14030;SDS011;7090;49.436;8.490;2023-05-27T00:54:30;5.90;;;5.70;;
14030;SDS011;7090;49.436;8.490;2023-05-27T00:56:56;6.30;;;6.10;;
14030;SDS011;7090;49.436;8.490;2023-05-27T00:59:22;9.03;;;7.67;;
14030;SDS011;7090;49.436;8.490;2023-05-27T01:01:48;5.60;;;5.40;;
14030;SDS011;7090;49.436;8.490;2023-05-27T01:04:14;7.00;;;6.60;;
14030;SDS011;7090;49.436;8.490;2023-05-27T01:09:26;6.43;;;6.07;;
14030;SDS011;7090;49.436;8.490;2023-05-27T01:12:15;5.87;;;5.67;;
14030;SDS011;7090;49.436;8.490;2023-05-27T01:15:05;5.90;;;5.60;;
14030;SDS011;7090;49.436;8.490;2023-05-27T01:17:33;5.70;;;5.50;;
14030;SDS011;7090;49.436;8.490;2023-05-27T01:20:02;6.03;;;5.73;;
14030;SDS011;7090;49.436;8.490;2023-05-27T01:22:30;5.70;;;5.50;;
14030;SDS011;7090;49.436;8.490;2023-05-27T01:24:57;5.60;;;5.40;;
14030;SDS011;7090;49.436;8.490;2023-05-27T01:27:22;5.50;;;5.30;;
14030;SDS011;7090;49.436;8.490;2023-05-27T01:29:52;5.70;;;5.50;;
14030;SDS011;7090;49.436;8.490;2023-05-27T01:32:20;5.70;;;5.50;;
14030;SDS011;7090;49.436;8.490;2023-05-27T01:35:01;5.70;;;5.50;;
14030;SDS011;7090;49.436;8.490;2023-05-27T01:37:48;5.70;;;5.50;;
14030;SDS011;7090;49.436;8.490;2023-05-27T01:40:17;6.00;;;5.80;;
14030;SDS011;7090;49.436;8.490;2023-05-27T01:42:43;6.20;;;6.00;;
14030;SDS011;7090;49.436;8.490;2023-05-27T01:45:10;6.67;;;6.37;;
14030;SDS011;7090;49.436;8.490;2023-05-27T01:47:36;8.03;;;6.47;;
14030;SDS011;7090;49.436;8.490;2023-05-27T01:50:02;6.10;;;5.90;;
14030;SDS011;7090;49.436;8.490;2023-05-27T01:52:28;6.10;;;5.90;;
14030;SDS011;7090;49.436;8.490;2023-05-27T01:54:54;6.27;;;6.07;;
14030;SDS011;7090;49.436;8.490;2023-05-27T01:57:20;6.10;;;5.90;;
14030;SDS011;7090;49.436;8.490;2023-05-27T01:59:46;6.43;;;6.13;;
14030;SDS011;7090;49.436;8.490;2023-05-27T02:02:12;6.37;;;6.17;;
14030;SDS011;7090;49.436;8.490;2023-05-27T02:04:37;6.10;;;5.90;;
14030;SDS011;7090;49.436;8.490;2023-05-27T02:07:03;5.97;;;5.77;;
14030;SDS011;7090;49.436;8.490;2023-05-27T02:09:29;7.00;;;6.43;;
14030;SDS011;7090;49.436;8.490;2023-05-27T02:11:54;8.60;;;8.20;;
14030;SDS011;7090;49.436;8.490;2023-05-27T02:14:20;6.00;;;5.80;;
14030;SDS011;7090;49.436;8.490;2023-05-27T02:16:46;11.53;;;6.50;;
14030;SDS011;7090;49.436;8.490;2023-05-27T02:19:15;5.97;;;5.77;;
14030;SDS011;7090;49.436;8.490;2023-05-27T02:21:41;5.83;;;5.63;;
14030;SDS011;7090;49.436;8.490;2023-05-27T02:24:06;5.90;;;5.70;;
14030;SDS011;7090;49.436;8.490;2023-05-27T02:26:32;6.13;;;5.93;;
14030;SDS011;7090;49.436;8.490;2023-05-27T02:28:58;5.80;;;5.60;;
14030;SDS011;7090;49.436;8.490;2023-05-27T02:31:24;5.70;;;5.50;;
14030;SDS011;7090;49.436;8.490;2023-05-27T02:33:50;5.80;;;5.60;;
14030;SDS011;7090;49.436;8.490;2023-05-27T02:36:15;11.33;;;6.17;;
14030;SDS011;7090;49.436;8.490;2023-05-27T02:38:41;5.70;;;5.50;;
14030;SDS011;7090;49.436;8.490;2023-05-27T02:41:06;5.80;;;5.60;;
14030;SDS011;7090;49.436;8.490;2023-05-27T02:43:32;6.00;;;5.80;;
14030;SDS011;7090;49.436;8.490;2023-05-27T02:45:57;6.30;;;6.10;;
14030;SDS011;7090;49.436;8.490;2023-05-27T02:48:23;6.00;;;5.80;;
14030;SDS011;7090;49.436;8.490;2023-05-27T02:50:48;5.87;;;5.67;;
14030;SDS011;7090;49.436;8.490;2023-05-27T02:53:14;6.10;;;5.90;;
14030;SDS011;7090;49.436;8.490;2023-05-27T02:55:40;6.33;;;6.03;;
14030;SDS011;7090;49.436;8.490;2023-05-27T02:58:06;5.90;;;5.70;;
14030;SDS011;7090;49.436;8.490;2023-05-27T03:00:32;6.10;;;5.90;;
14030;SDS011;7090;49.436;8.490;2023-05-27T03:02:58;6.20;;;6.00;;
14030;SDS011;7090;49.436;8.490;2023-05-27T03:05:24;6.40;;;6.20;;
14030;SDS011;7090;49.436;8.490;2023-05-27T03:07:50;6.30;;;6.10;;
14030;SDS011;7090;49.436;8.490;2023-05-27T03:10:15;14.03;;;7.23;;
14030;SDS011;7090;49.436;8.490;2023-05-27T03:12:41;8.63;;;8.33;;
14030;SDS011;7090;49.436;8.490;2023-05-27T03:15:07;7.30;;;7.00;;
14030;SDS011;7090;49.436;8.490;2023-05-27T03:17:36;8.03;;;7.50;;
14030;SDS011;7090;49.436;8.490;2023-05-27T03:20:02;9.23;;;6.50;;
14030;SDS011;7090;49.436;8.490;2023-05-27T03:22:30;7.00;;;6.70;;
14030;SDS011;7090;49.436;8.490;2023-05-27T03:24:56;7.23;;;6.83;;
14030;SDS011;7090;49.436;8.490;2023-05-27T03:27:22;6.83;;;6.63;;
14030;SDS011;7090;49.436;8.490;2023-05-27T03:29:47;6.47;;;6.27;;
14030;SDS011;7090;49.436;8.490;2023-05-27T03:32:13;6.43;;;6.23;;
14030;SDS011;7090;49.436;8.490;2023-05-27T03:34:39;7.30;;;7.00;;
14030;SDS011;7090;49.436;8.490;2023-05-27T03:37:05;7.07;;;6.87;;
14030;SDS011;7090;49.436;8.490;2023-05-27T03:39:30;7.90;;;7.53;;
14030;SDS011;7090;49.436;8.490;2023-05-27T03:41:56;7.40;;;7.10;;
14030;SDS011;7090;49.436;8.490;2023-05-27T03:44:22;7.40;;;7.10;;
14030;SDS011;7090;49.436;8.490;2023-05-27T03:46:48;7.20;;;6.90;;
14030;SDS011;7090;49.436;8.490;2023-05-27T03:49:13;7.90;;;7.40;;
14030;SDS011;7090;49.436;8.490;2023-05-27T03:51:39;7.63;;;7.20;;
14030;SDS011;7090;49.436;8.490;2023-05-27T03:54:05;6.93;;;6.73;;
14030;SDS011;7090;49.436;8.490;2023-05-27T03:56:30;7.40;;;7.10;;
14030;SDS011;7090;49.436;8.490;2023-05-27T03:58:56;6.60;;;6.40;;
14030;SDS011;7090;49.436;8.490;2023-05-27T04:01:21;6.83;;;6.60;;
14030;SDS011;7090;49.436;8.490;2023-05-27T04:03:47;7.17;;;6.77;;
14030;SDS011;7090;49.436;8.490;2023-05-27T04:06:13;7.30;;;7.00;;
14030;SDS011;7090;49.436;8.490;2023-05-27T04:08:40;6.60;;;6.40;;
14030;SDS011;7090;49.436;8.490;2023-05-27T04:11:06;8.02;;;7.72;;
14030;SDS011;7090;49.436;8.490;2023-05-27T04:13:34;8.03;;;7.73;;
14030;SDS011;7090;49.436;8.490;2023-05-27T04:16:00;7.70;;;7.40;;
14030;SDS011;7090;49.436;8.490;2023-05-27T04:18:26;7.70;;;7.40;;
14030;SDS011;7090;49.436;8.490;2023-05-27T04:20:51;7.60;;;7.30;;
14030;SDS011;7090;49.436;8.490;2023-05-27T04:23:17;8.40;;;8.00;;
14030;SDS011;7090;49.436;8.490;2023-05-27T04:25:43;7.50;;;7.20;;
14030;SDS011;7090;49.436;8.490;2023-05-27T04:28:08;7.80;;;7.50;;
14030;SDS011;7090;49.436;8.490;2023-05-27T04:30:34;7.50;;;7.20;;
14030;SDS011;7090;49.436;8.490;2023-05-27T04:33:01;7.50;;;7.20;;
14030;SDS011;7090;49.436;8.490;2023-05-27T04:35:27;7.30;;;7.00;;
14030;SDS011;7090;49.436;8.490;2023-05-27T04:37:56;7.60;;;7.30;;
14030;SDS011;7090;49.436;8.490;2023-05-27T04:40:24;8.48;;;8.05;;
14030;SDS011;7090;49.436;8.490;2023-05-27T04:42:49;7.78;;;7.47;;
14030;SDS011;7090;49.436;8.490;2023-05-27T04:45:15;7.93;;;7.53;;
14030;SDS011;7090;49.436;8.490;2023-05-27T04:47:41;7.57;;;7.28;;
14030;SDS011;7090;49.436;8.490;2023-05-27T04:50:07;6.97;;;6.77;;
14030;SDS011;7090;49.436;8.490;2023-05-27T04:52:33;7.40;;;7.10;;
14030;SDS011;7090;49.436;8.490;2023-05-27T04:55:07;7.50;;;7.20;;
14030;SDS011;7090;49.436;8.490;2023-05-27T04:57:34;7.70;;;7.40;;
14030;SDS011;7090;49.436;8.490;2023-05-27T05:00:02;8.65;;;7.80;;
14030;SDS011;7090;49.436;8.490;2023-05-27T05:02:28;7.15;;;6.85;;
14030;SDS011;7090;49.436;8.490;2023-05-27T05:05:06;8.10;;;7.80;;
14030;SDS011;7090;49.436;8.490;2023-05-27T05:07:36;7.80;;;7.50;;
14030;SDS011;7090;49.436;8.490;2023-05-27T05:10:03;7.47;;;7.18;;
14030;SDS011;7090;49.436;8.490;2023-05-27T05:12:30;7.70;;;7.40;;
14030;SDS011;7090;49.436;8.490;2023-05-27T05:14:56;7.78;;;7.47;;
14030;SDS011;7090;49.436;8.490;2023-05-27T05:17:22;7.60;;;7.30;;
14030;SDS011;7090;49.436;8.490;2023-05-27T05:19:49;7.47;;;7.18;;
14030;SDS011;7090;49.436;8.490;2023-05-27T05:22:15;7.60;;;7.30;;
14030;SDS011;7090;49.436;8.490;2023-05-27T05:24:44;7.78;;;7.47;;
14030;SDS011;7090;49.436;8.490;2023-05-27T05:27:10;8.65;;;8.20;;
14030;SDS011;7090;49.436;8.490;2023-05-27T05:29:35;7.60;;;7.30;;
14030;SDS011;7090;49.436;8.490;2023-05-27T05:32:01;7.50;;;7.20;;
14030;SDS011;7090;49.436;8.490;2023-05-27T05:34:27;7.40;;;7.10;;
14030;SDS011;7090;49.436;8.490;2023-05-27T05:36:53;8.60;;;8.20;;
14030;SDS011;7090;49.436;8.490;2023-05-27T05:39:18;7.60;;;7.30;;
14030;SDS011;7090;49.436;8.490;2023-05-27T05:41:45;9.15;;;8.30;;
14030;SDS011;7090;49.436;8.490;2023-05-27T05:44:11;8.07;;;7.78;;
14030;SDS011;7090;49.436;8.490;2023-05-27T05:46:37;7.80;;;7.40;;
14030;SDS011;7090;49.436;8.490;2023-05-27T05:49:03;7.63;;;7.32;;
14030;SDS011;7090;49.436;8.490;2023-05-27T05:51:29;8.40;;;8.10;;
14030;SDS011;7090;49.436;8.490;2023-05-27T05:53:56;7.68;;;7.38;;
14030;SDS011;7090;49.436;8.490;2023-05-27T05:56:22;8.05;;;7.75;;
14030;SDS011;7090;49.436;8.490;2023-05-27T05:58:48;9.43;;;8.90;;
14030;SDS011;7090;49.436;8.490;2023-05-27T06:01:13;7.93;;;7.63;;
14030;SDS011;7090;49.436;8.490;2023-05-27T06:03:39;8.93;;;8.52;;
14030;SDS011;7090;49.436;8.490;2023-05-27T06:06:04;8.13;;;7.82;;
14030;SDS011;7090;49.436;8.490;2023-05-27T06:08:30;7.57;;;7.28;;
14030;SDS011;7090;49.436;8.490;2023-05-27T06:10:56;7.80;;;7.50;;
14030;SDS011;7090;49.436;8.490;2023-05-27T06:13:21;8.30;;;7.85;;
14030;SDS011;7090;49.436;8.490;2023-05-27T06:15:50;7.80;;;7.50;;
14030;SDS011;7090;49.436;8.490;2023-05-27T06:18:16;7.78;;;7.47;;
14030;SDS011;7090;49.436;8.490;2023-05-27T06:20:41;7.50;;;7.20;;
14030;SDS011;7090;49.436;8.490;2023-05-27T06:23:07;8.18;;;7.88;;
14030;SDS011;7090;49.436;8.490;2023-05-27T06:25:32;7.90;;;7.60;;
14030;SDS011;7090;49.436;8.490;2023-05-27T06:27:58;9.30;;;8.60;;
14030;SDS011;7090;49.436;8.490;2023-05-27T06:30:24;8.00;;;7.70;;
14030;SDS011;7090;49.436;8.490;2023-05-27T06:32:50;8.45;;;8.05;;
14030;SDS011;7090;49.436;8.490;2023-05-27T06:35:16;7.70;;;7.40;;
14030;SDS011;7090;49.436;8.490;2023-05-27T06:37:42;7.93;;;7.53;;
14030;SDS011;7090;49.436;8.490;2023-05-27T06:40:08;8.65;;;8.35;;
14030;SDS011;7090;49.436;8.490;2023-05-27T06:42:35;8.00;;;7.70;;
14030;SDS011;7090;49.436;8.490;2023-05-27T06:45:01;7.78;;;7.47;;
14030;SDS011;7090;49.436;8.490;2023-05-27T06:47:26;22.05;;;8.00;;
14030;SDS011;7090;49.436;8.490;2023-05-27T06:49:52;8.45;;;8.05;;
14030;SDS011;7090;49.436;8.490;2023-05-27T06:52:18;8.88;;;8.48;;
14030;SDS011;7090;49.436;8.490;2023-05-27T06:54:43;8.55;;;8.15;;
14030;SDS011;7090;49.436;8.490;2023-05-27T06:57:09;8.15;;;7.85;;
14030;SDS011;7090;49.436;8.490;2023-05-27T06:59:35;8.20;;;7.90;;
14030;SDS011;7090;49.436;8.490;2023-05-27T07:02:00;8.25;;;7.90;;
14030;SDS011;7090;49.436;8.490;2023-05-27T07:04:26;7.80;;;7.50;;
14030;SDS011;7090;49.436;8.490;2023-05-27T07:06:51;8.15;;;7.82;;
14030;SDS011;7090;49.436;8.490;2023-05-27T07:09:17;8.20;;;7.90;;
14030;SDS011;7090;49.436;8.490;2023-05-27T07:11:43;8.45;;;8.15;;
14030;SDS011;7090;49.436;8.490;2023-05-27T07:14:08;8.65;;;8.25;;
14030;SDS011;7090;49.436;8.490;2023-05-27T07:16:36;8.27;;;7.88;;
14030;SDS011;7090;49.436;8.490;2023-05-27T07:19:02;7.43;;;7.13;;
14030;SDS011;7090;49.436;8.490;2023-05-27T07:21:27;8.20;;;7.70;;
14030;SDS011;7090;49.436;8.490;2023-05-27T07:23:53;8.00;;;7.70;;
14030;SDS011;7090;49.436;8.490;2023-05-27T07:26:19;8.40;;;8.10;;
14030;SDS011;7090;49.436;8.490;2023-05-27T07:28:45;9.48;;;9.07;;
14030;SDS011;7090;49.436;8.490;2023-05-27T07:31:11;8.38;;;8.07;;
14030;SDS011;7090;49.436;8.490;2023-05-27T07:33:36;9.00;;;8.60;;
14030;SDS011;7090;49.436;8.490;2023-05-27T07:36:02;8.63;;;8.23;;
14030;SDS011;7090;49.436;8.490;2023-05-27T07:38:28;8.55;;;8.15;;
14030;SDS011;7090;49.436;8.490;2023-05-27T07:40:53;9.35;;;8.70;;
14030;SDS011;7090;49.436;8.490;2023-05-27T07:43:19;8.52;;;8.23;;
14030;SDS011;7090;49.436;8.490;2023-05-27T07:45:45;8.70;;;8.40;;
14030;SDS011;7090;49.436;8.490;2023-05-27T07:48:10;8.50;;;8.20;;
14030;SDS011;7090;49.436;8.490;2023-05-27T07:50:36;8.40;;;8.10;;
14030;SDS011;7090;49.436;8.490;2023-05-27T07:53:01;9.15;;;8.75;;
14030;SDS011;7090;49.436;8.490;2023-05-27T07:55:27;8.68;;;8.38;;
14030;SDS011;7090;49.436;8.490;2023-05-27T07:57:55;8.55;;;8.18;;
14030;SDS011;7090;49.436;8.490;2023-05-27T08:00:21;8.70;;;8.30;;
14030;SDS011;7090;49.436;8.490;2023-05-27T08:02:47;8.70;;;8.30;;
14030;SDS011;7090;49.436;8.490;2023-05-27T08:05:12;8.20;;;7.90;;
14030;SDS011;7090;49.436;8.490;2023-05-27T08:07:38;8.20;;;7.90;;
14030;SDS011;7090;49.436;8.490;2023-05-27T08:10:03;8.48;;;8.18;;
14030;SDS011;7090;49.436;8.490;2023-05-27T08:12:29;29.17;;;8.80;;
14030;SDS011;7090;49.436;8.490;2023-05-27T08:14:55;8.85;;;8.45;;
14030;SDS011;7090;49.436;8.490;2023-05-27T08:17:20;9.30;;;8.90;;
14030;SDS011;7090;49.436;8.490;2023-05-27T08:19:46;9.00;;;8.50;;
14030;SDS011;7090;49.436;8.490;2023-05-27T08:22:12;8.90;;;8.50;;
14030;SDS011;7090;49.436;8.490;2023-05-27T08:24:37;9.60;;;9.10;;
14030;SDS011;7090;49.436;8.490;2023-05-27T08:27:03;9.23;;;8.82;;
14030;SDS011;7090;49.436;8.490;2023-05-27T08:29:32;9.20;;;8.80;;
14030;SDS011;7090;49.436;8.490;2023-05-27T08:31:58;9.00;;;8.60;;
14030;SDS011;7090;49.436;8.490;2023-05-27T08:34:23;9.25;;;8.85;;
14030;SDS011;7090;49.436;8.490;2023-05-27T08:36:51;8.90;;;8.50;;
14030;SDS011;7090;49.436;8.490;2023-05-27T08:39:16;10.60;;;10.00;;
14030;SDS011;7090;49.436;8.490;2023-05-27T08:41:42;10.27;;;9.75;;
14030;SDS011;7090;49.436;8.490;2023-05-27T08:44:08;10.00;;;9.23;;
14030;SDS011;7090;49.436;8.490;2023-05-27T08:46:33;9.10;;;8.70;;
14030;SDS011;7090;49.436;8.490;2023-05-27T08:49:00;11.13;;;10.25;;
14030;SDS011;7090;49.436;8.490;2023-05-27T08:51:26;8.88;;;8.48;;
14030;SDS011;7090;49.436;8.490;2023-05-27T08:53:52;9.73;;;9.27;;
14030;SDS011;7090;49.436;8.490;2023-05-27T08:56:19;11.80;;;10.82;;
14030;SDS011;7090;49.436;8.490;2023-05-27T08:58:48;8.90;;;8.50;;
14030;SDS011;7090;49.436;8.490;2023-05-27T09:01:16;10.82;;;10.00;;
14030;SDS011;7090;49.436;8.490;2023-05-27T09:03:42;9.65;;;9.15;;
14030;SDS011;7090;49.436;8.490;2023-05-27T09:06:09;9.45;;;9.05;;
14030;SDS011;7090;49.436;8.490;2023-05-27T09:08:34;9.70;;;9.15;;
14030;SDS011;7090;49.436;8.490;2023-05-27T09:11:00;9.45;;;8.70;;
14030;SDS011;7090;49.436;8.490;2023-05-27T09:13:27;9.23;;;8.82;;
14030;SDS011;7090;49.436;8.490;2023-05-27T09:15:59;9.23;;;8.75;;
14030;SDS011;7090;49.436;8.490;2023-05-27T09:18:27;8.50;;;8.20;;
14030;SDS011;7090;49.436;8.490;2023-05-27T09:20:56;8.32;;;8.02;;
14030;SDS011;7090;49.436;8.490;2023-05-27T09:23:22;8.98;;;8.57;;
14030;SDS011;7090;49.436;8.490;2023-05-27T09:25:48;8.50;;;8.20;;
14030;SDS011;7090;49.436;8.490;2023-05-27T09:28:24;8.73;;;8.32;;
14030;SDS011;7090;49.436;8.490;2023-05-27T09:31:00;8.45;;;8.15;;
14030;SDS011;7090;49.436;8.490;2023-05-27T09:33:30;8.27;;;7.93;;
14030;SDS011;7090;49.436;8.490;2023-05-27T09:35:57;8.45;;;8.15;;
14030;SDS011;7090;49.436;8.490;2023-05-27T09:38:23;8.88;;;8.38;;
14030;SDS011;7090;49.436;8.490;2023-05-27T09:40:49;9.10;;;8.60;;
14030;SDS011;7090;49.436;8.490;2023-05-27T09:43:14;10.80;;;9.77;;
14030;SDS011;7090;49.436;8.490;2023-05-27T09:45:43;10.35;;;9.77;;
14030;SDS011;7090;49.436;8.490;2023-05-27T09:48:10;9.20;;;8.80;;
14030;SDS011;7090;49.436;8.490;2023-05-27T09:50:37;9.95;;;9.23;;
14030;SDS011;7090;49.436;8.490;2023-05-27T09:53:04;8.90;;;8.50;;
14030;SDS011;7090;49.436;8.490;2023-05-27T09:55:31;8.70;;;8.30;;
14030;SDS011;7090;49.436;8.490;2023-05-27T09:57:56;10.73;;;9.85;;
14030;SDS011;7090;49.436;8.490;2023-05-27T10:00:23;10.82;;;9.82;;
14030;SDS011;7090;49.436;8.490;2023-05-27T10:02:48;8.30;;;8.00;;
14030;SDS011;7090;49.436;8.490;2023-05-27T10:05:15;8.90;;;8.50;;
14030;SDS011;7090;49.436;8.490;2023-05-27T10:07:42;8.65;;;8.35;;
14030;SDS011;7090;49.436;8.490;2023-05-27T10:10:09;8.85;;;8.45;;
14030;SDS011;7090;49.436;8.490;2023-05-27T10:12:42;8.48;;;8.18;;
14030;SDS011;7090;49.436;8.490;2023-05-27T10:15:20;8.90;;;8.50;;
14030;SDS011;7090;49.436;8.490;2023-05-27T10:17:56;8.60;;;8.20;;
14030;SDS011;7090;49.436;8.490;2023-05-27T10:20:23;9.10;;;8.65;;
14030;SDS011;7090;49.436;8.490;2023-05-27T10:22:49;10.20;;;9.25;;
14030;SDS011;7090;49.436;8.490;2023-05-27T10:25:15;10.55;;;9.77;;
14030;SDS011;7090;49.436;8.490;2023-05-27T10:27:45;8.77;;;8.38;;
14030;SDS011;7090;49.436;8.490;2023-05-27T10:30:12;9.30;;;8.70;;
14030;SDS011;7090;49.436;8.490;2023-05-27T10:32:57;9.10;;;8.70;;
14030;SDS011;7090;49.436;8.490;2023-05-27T10:35:25;9.38;;;8.95;;
14030;SDS011;7090;49.436;8.490;2023-05-27T10:37:52;9.85;;;9.27;;
14030;SDS011;7090;49.436;8.490;2023-05-27T10:40:24;9.63;;;9.23;;
14030;SDS011;7090;49.436;8.490;2023-05-27T10:43:00;9.93;;;9.45;;
14030;SDS011;7090;49.436;8.490;2023-05-27T10:45:33;9.40;;;8.90;;
14030;SDS011;7090;49.436;8.490;2023-05-27T10:47:59;8.60;;;8.20;;
14030;SDS011;7090;49.436;8.490;2023-05-27T10:50:30;8.93;;;8.52;;
14030;SDS011;7090;49.436;8.490;2023-05-27T10:52:59;9.90;;;9.43;;
14030;SDS011;7090;49.436;8.490;2023-05-27T10:55:26;8.80;;;8.40;;
14030;SDS011;7090;49.436;8.490;2023-05-27T10:57:52;9.45;;;8.95;;
14030;SDS011;7090;49.436;8.490;2023-05-27T11:00:18;8.13;;;7.82;;
14030;SDS011;7090;49.436;8.490;2023-05-27T11:02:45;9.90;;;9.07;;
14030;SDS011;7090;49.436;8.490;2023-05-27T11:05:15;8.60;;;8.20;;
14030;SDS011;7090;49.436;8.490;2023-05-27T11:07:40;9.18;;;8.77;;
14030;SDS011;7090;49.436;8.490;2023-05-27T11:10:07;9.10;;;8.60;;
14030;SDS011;7090;49.436;8.490;2023-05-27T11:12:34;10.05;;;9.45;;
14030;SDS011;7090;49.436;8.490;2023-05-27T11:15:00;9.60;;;8.90;;
14030;SDS011;7090;49.436;8.490;2023-05-27T11:17:26;9.45;;;8.73;;
14030;SDS011;7090;49.436;8.490;2023-05-27T11:19:51;8.52;;;8.13;;
14030;SDS011;7090;49.436;8.490;2023-05-27T11:22:18;11.20;;;10.32;;
14030;SDS011;7090;49.436;8.490;2023-05-27T11:27:22;8.90;;;8.50;;
14030;SDS011;7090;49.436;8.490;2023-05-27T11:29:48;8.50;;;8.10;;
14030;SDS011;7090;49.436;8.490;2023-05-27T11:32:16;9.15;;;8.65;;
14030;SDS011;7090;49.436;8.490;2023-05-27T11:34:43;8.60;;;8.20;;
14030;SDS011;7090;49.436;8.490;2023-05-27T11:37:10;8.98;;;8.48;;
14030;SDS011;7090;49.436;8.490;2023-05-27T11:39:37;9.02;;;8.57;;
14030;SDS011;7090;49.436;8.490;2023-05-27T11:42:05;11.02;;;9.90;;
14030;SDS011;7090;49.436;8.490;2023-05-27T11:44:33;11.80;;;9.48;;
14030;SDS011;7090;49.436;8.490;2023-05-27T11:46:59;8.95;;;8.55;;
14030;SDS011;7090;49.436;8.490;2023-05-27T11:49:28;12.00;;;11.07;;
14030;SDS011;7090;49.436;8.490;2023-05-27T11:51:54;11.68;;;10.60;;
14030;SDS011;7090;49.436;8.490;2023-05-27T11:54:30;10.35;;;9.65;;
14030;SDS011;7090;49.436;8.490;2023-05-27T11:56:56;10.52;;;9.82;;
14030;SDS011;7090;49.436;8.490;2023-05-27T11:59:24;9.98;;;9.43;;
14030;SDS011;7090;49.436;8.490;2023-05-27T12:01:50;12.55;;;10.80;;
14030;SDS011;7090;49.436;8.490;2023-05-27T12:04:16;10.85;;;10.15;;
14030;SDS011;7090;49.436;8.490;2023-05-27T12:06:43;11.82;;;10.70;;
14030;SDS011;7090;49.436;8.490;2023-05-27T12:09:10;12.82;;;11.65;;
14030;SDS011;7090;49.436;8.490;2023-05-27T12:11:36;14.05;;;10.23;;
14030;SDS011;7090;49.436;8.490;2023-05-27T12:14:03;10.27;;;9.48;;
14030;SDS011;7090;49.436;8.490;2023-05-27T12:16:29;8.90;;;8.50;;
14030;SDS011;7090;49.436;8.490;2023-05-27T12:18:55;9.48;;;8.88;;
14030;SDS011;7090;49.436;8.490;2023-05-27T12:21:22;9.27;;;8.85;;
14030;SDS011;7090;49.436;8.490;2023-05-27T12:23:48;10.73;;;9.95;;
14030;SDS011;7090;49.436;8.490;2023-05-27T12:26:14;10.68;;;9.98;;
14030;SDS011;7090;49.436;8.490;2023-05-27T12:28:40;10.70;;;10.00;;
14030;SDS011;7090;49.436;8.490;2023-05-27T12:31:06;8.65;;;8.25;;
14030;SDS011;7090;49.436;8.490;2023-05-27T12:33:32;8.90;;;8.30;;
14030;SDS011;7090;49.436;8.490;2023-05-27T12:35:58;9.10;;;8.70;;
14030;SDS011;7090;49.436;8.490;2023-05-27T12:38:24;9.60;;;9.10;;
14030;SDS011;7090;49.436;8.490;2023-05-27T12:40:50;8.85;;;8.45;;
14030;SDS011;7090;49.436;8.490;2023-05-27T12:43:17;9.27;;;8.80;;
14030;SDS011;7090;49.436;8.490;2023-05-27T12:45:45;10.85;;;9.85;;
14030;SDS011;7090;49.436;8.490;2023-05-27T12:48:14;8.85;;;8.45;;
14030;SDS011;7090;49.436;8.490;2023-05-27T12:50:40;9.85;;;9.35;;
14030;SDS011;7090;49.436;8.490;2023-05-27T12:53:07;8.85;;;8.43;;
14030;SDS011;7090;49.436;8.490;2023-05-27T12:55:33;9.30;;;8.60;;
14030;SDS011;7090;49.436;8.490;2023-05-27T12:57:59;9.52;;;8.90;;
14030;SDS011;7090;49.436;8.490;2023-05-27T13:00:24;8.07;;;7.78;;
14030;SDS011;7090;49.436;8.490;2023-05-27T13:02:50;8.50;;;8.10;;
14030;SDS011;7090;49.436;8.490;2023-05-27T13:05:16;8.70;;;8.30;;
14030;SDS011;7090;49.436;8.490;2023-05-27T13:07:52;9.57;;;8.90;;
14030;SDS011;7090;49.436;8.490;2023-05-27T13:10:22;10.85;;;9.95;;
14030;SDS011;7090;49.436;8.490;2023-05-27T13:12:48;9.80;;;9.30;;
14030;SDS011;7090;49.436;8.490;2023-05-27T13:15:15;10.77;;;9.95;;
14030;SDS011;7090;49.436;8.490;2023-05-27T13:17:41;10.68;;;9.80;;
14030;SDS011;7090;49.436;8.490;2023-05-27T13:20:10;10.15;;;9.65;;
14030;SDS011;7090;49.436;8.490;2023-05-27T13:22:37;10.40;;;9.70;;
14030;SDS011;7090;49.436;8.490;2023-05-27T13:25:03;8.90;;;8.50;;
14030;SDS011;7090;49.436;8.490;2023-05-27T13:27:29;8.95;;;8.55;;
14030;SDS011;7090;49.436;8.490;2023-05-27T13:29:55;8.65;;;8.25;;
14030;SDS011;7090;49.436;8.490;2023-05-27T13:32:21;9.32;;;8.93;;
14030;SDS011;7090;49.436;8.490;2023-05-27T13:34:47;9.20;;;8.80;;
14030;SDS011;7090;49.436;8.490;2023-05-27T13:37:12;10.45;;;9.75;;
14030;SDS011;7090;49.436;8.490;2023-05-27T13:39:38;10.27;;;9.57;;
14030;SDS011;7090;49.436;8.490;2023-05-27T13:42:08;9.00;;;8.60;;
14030;SDS011;7090;49.436;8.490;2023-05-27T13:44:33;8.55;;;8.15;;
14030;SDS011;7090;49.436;8.490;2023-05-27T13:46:59;8.60;;;8.20;;
14030;SDS011;7090;49.436;8.490;2023-05-27T13:49:25;10.10;;;9.40;;
14030;SDS011;7090;49.436;8.490;2023-05-27T13:51:51;9.27;;;8.88;;
14030;SDS011;7090;49.436;8.490;2023-05-27T13:54:16;8.90;;;8.50;;
14030;SDS011;7090;49.436;8.490;2023-05-27T13:56:42;8.80;;;8.40;;
14030;SDS011;7090;49.436;8.490;2023-05-27T13:59:08;10.65;;;9.85;;
14030;SDS011;7090;49.436;8.490;2023-05-27T14:01:34;9.50;;;9.10;;
14030;SDS011;7090;49.436;8.490;2023-05-27T14:04:01;9.15;;;8.70;;
14030;SDS011;7090;49.436;8.490;2023-05-27T14:06:26;9.40;;;9.00;;
14030;SDS011;7090;49.436;8.490;2023-05-27T14:08:53;9.70;;;9.18;;
14030;SDS011;7090;49.436;8.490;2023-05-27T14:11:19;10.73;;;9.48;;
14030;SDS011;7090;49.436;8.490;2023-05-27T14:13:47;9.00;;;8.60;;
14030;SDS011;7090;49.436;8.490;2023-05-27T14:16:13;8.90;;;8.50;;
14030;SDS011;7090;49.436;8.490;2023-05-27T14:18:39;8.80;;;8.40;;
14030;SDS011;7090;49.436;8.490;2023-05-27T14:21:05;8.45;;;8.10;;
14030;SDS011;7090;49.436;8.490;2023-05-27T14:23:31;9.32;;;8.82;;
14030;SDS011;7090;49.436;8.490;2023-05-27T14:25:56;8.95;;;8.55;;
14030;SDS011;7090;49.436;8.490;2023-05-27T14:28:22;8.30;;;8.00;;
14030;SDS011;7090;49.436;8.490;2023-05-27T14:30:47;8.90;;;8.50;;
14030;SDS011;7090;49.436;8.490;2023-05-27T14:33:13;9.18;;;8.77;;
14030;SDS011;7090;49.436;8.490;2023-05-27T14:35:39;9.82;;;9.15;;
14030;SDS011;7090;49.436;8.490;2023-05-27T14:38:05;10.80;;;9.95;;
14030;SDS011;7090;49.436;8.490;2023-05-27T14:40:31;10.90;;;10.10;;
14030;SDS011;7090;49.436;8.490;2023-05-27T14:42:57;9.10;;;8.70;;
14030;SDS011;7090;49.436;8.490;2023-05-27T14:45:23;8.85;;;8.45;;
14030;SDS011;7090;49.436;8.490;2023-05-27T14:47:51;9.68;;;9.18;;
14030;SDS011;7090;49.436;8.490;2023-05-27T14:50:20;8.90;;;8.50;;
14030;SDS011;7090;49.436;8.490;2023-05-27T14:52:48;9.60;;;8.82;;
14030;SDS011;7090;49.436;8.490;2023-05-27T14:55:14;8.90;;;8.50;;
14030;SDS011;7090;49.436;8.490;2023-05-27T14:57:39;9.13;;;8.73;;
14030;SDS011;7090;49.436;8.490;2023-05-27T15:00:06;8.90;;;8.50;;